sensor_id;sensor_type;location;lat;lon;timestamp;P1;durP1;ratioP1;P2;durP2;ratioP2
32824;SDS011;51060;42.640;24.356;2023-03-26T00:01:09;35.90;;;27.90;;
32824;SDS011;51060;42.640;24.356;2023-03-26T00:03:39;40.47;;;29.70;;
32824;SDS011;51060;42.640;24.356;2023-03-26T00:08:33;37.80;;;28.17;;
32824;SDS011;51060;42.640;24.356;2023-03-26T00:11:00;37.40;;;28.13;;
32824;SDS011;51060;42.640;24.356;2023-03-26T00:13:26;35.20;;;27.37;;
32824;SDS011;51060;42.640;24.356;2023-03-26T00:15:52;35.77;;;27.90;;
32824;SDS011;51060;42.640;24.356;2023-03-26T00:18:18;34.73;;;26.73;;
32824;SDS011;51060;42.640;24.356;2023-03-26T00:20:45;35.93;;;26.07;;
32824;SDS011;51060;42.640;24.356;2023-03-26T00:23:11;41.40;;;31.27;;
32824;SDS011;51060;42.640;24.356;2023-03-26T00:25:37;40.50;;;29.90;;
32824;SDS011;51060;42.640;24.356;2023-03-26T00:28:05;41.00;;;30.30;;
32824;SDS011;51060;42.640;24.356;2023-03-26T00:30:32;40.60;;;30.57;;
32824;SDS011;51060;42.640;24.356;2023-03-26T00:32:59;52.53;;;36.53;;
32824;SDS011;51060;42.640;24.356;2023-03-26T00:35:25;55.70;;;39.57;;
32824;SDS011;51060;42.640;24.356;2023-03-26T00:37:53;59.50;;;39.03;;
32824;SDS011;51060;42.640;24.356;2023-03-26T00:40:20;55.40;;;40.33;;
32824;SDS011;51060;42.640;24.356;2023-03-26T00:42:47;54.77;;;39.70;;
32824;SDS011;51060;42.640;24.356;2023-03-26T00:45:13;36.50;;;27.60;;
32824;SDS011;51060;42.640;24.356;2023-03-26T00:47:38;29.33;;;23.00;;
32824;SDS011;51060;42.640;24.356;2023-03-26T00:50:04;26.27;;;20.47;;
32824;SDS011;51060;42.640;24.356;2023-03-26T00:52:31;20.20;;;16.10;;
32824;SDS011;51060;42.640;24.356;2023-03-26T00:54:57;11.83;;;10.63;;
32824;SDS011;51060;42.640;24.356;2023-03-26T00:57:23;10.93;;;9.83;;
32824;SDS011;51060;42.640;24.356;2023-03-26T00:59:54;18.37;;;10.43;;
32824;SDS011;51060;42.640;24.356;2023-03-26T01:02:20;11.93;;;10.70;;
32824;SDS011;51060;42.640;24.356;2023-03-26T01:04:47;11.30;;;10.13;;
32824;SDS011;51060;42.640;24.356;2023-03-26T01:07:19;11.70;;;10.03;;
32824;SDS011;51060;42.640;24.356;2023-03-26T01:09:47;12.13;;;10.83;;
32824;SDS011;51060;42.640;24.356;2023-03-26T01:12:18;12.90;;;10.73;;
32824;SDS011;51060;42.640;24.356;2023-03-26T01:14:46;12.73;;;11.43;;
32824;SDS011;51060;42.640;24.356;2023-03-26T01:17:13;15.27;;;12.77;;
32824;SDS011;51060;42.640;24.356;2023-03-26T01:22:09;16.97;;;12.33;;
32824;SDS011;51060;42.640;24.356;2023-03-26T01:24:36;16.37;;;13.13;;
32824;SDS011;51060;42.640;24.356;2023-03-26T01:27:05;13.90;;;12.40;;
32824;SDS011;51060;42.640;24.356;2023-03-26T01:29:53;14.73;;;12.93;;
32824;SDS011;51060;42.640;24.356;2023-03-26T01:40:10;14.27;;;12.20;;
32824;SDS011;51060;42.640;24.356;2023-03-26T01:45:47;14.40;;;12.53;;
32824;SDS011;51060;42.640;24.356;2023-03-26T01:48:13;12.80;;;11.50;;
32824;SDS011;51060;42.640;24.356;2023-03-26T01:50:39;12.33;;;10.73;;
32824;SDS011;51060;42.640;24.356;2023-03-26T01:53:05;11.90;;;10.37;;
32824;SDS011;51060;42.640;24.356;2023-03-26T01:58:10;9.93;;;8.93;;
32824;SDS011;51060;42.640;24.356;2023-03-26T02:00:45;9.30;;;7.90;;
32824;SDS011;51060;42.640;24.356;2023-03-26T02:03:29;9.23;;;7.63;;
32824;SDS011;51060;42.640;24.356;2023-03-26T02:09:02;8.43;;;6.80;;
32824;SDS011;51060;42.640;24.356;2023-03-26T02:11:33;6.93;;;6.23;;
32824;SDS011;51060;42.640;24.356;2023-03-26T02:14:00;6.87;;;5.97;;
32824;SDS011;51060;42.640;24.356;2023-03-26T02:16:25;6.83;;;6.23;;
32824;SDS011;51060;42.640;24.356;2023-03-26T02:18:51;5.07;;;4.67;;
32824;SDS011;51060;42.640;24.356;2023-03-26T02:21:20;5.17;;;4.77;;
32824;SDS011;51060;42.640;24.356;2023-03-26T02:23:51;4.27;;;3.87;;
32824;SDS011;51060;42.640;24.356;2023-03-26T02:26:28;3.37;;;2.87;;
32824;SDS011;51060;42.640;24.356;2023-03-26T02:28:54;3.77;;;3.47;;
32824;SDS011;51060;42.640;24.356;2023-03-26T02:31:21;3.90;;;3.60;;
32824;SDS011;51060;42.640;24.356;2023-03-26T02:33:50;4.40;;;4.00;;
32824;SDS011;51060;42.640;24.356;2023-03-26T02:36:16;4.83;;;4.43;;
32824;SDS011;51060;42.640;24.356;2023-03-26T02:38:46;5.50;;;4.57;;
32824;SDS011;51060;42.640;24.356;2023-03-26T02:41:11;4.80;;;4.40;;
32824;SDS011;51060;42.640;24.356;2023-03-26T02:43:37;4.67;;;4.10;;
32824;SDS011;51060;42.640;24.356;2023-03-26T02:46:02;4.50;;;3.90;;
32824;SDS011;51060;42.640;24.356;2023-03-26T02:48:28;4.53;;;3.93;;
32824;SDS011;51060;42.640;24.356;2023-03-26T02:50:55;4.00;;;3.60;;
32824;SDS011;51060;42.640;24.356;2023-03-26T02:53:21;2.83;;;2.50;;
32824;SDS011;51060;42.640;24.356;2023-03-26T02:55:48;3.50;;;3.10;;
32824;SDS011;51060;42.640;24.356;2023-03-26T02:58:14;4.63;;;3.60;;
32824;SDS011;51060;42.640;24.356;2023-03-26T03:00:43;3.70;;;3.30;;
32824;SDS011;51060;42.640;24.356;2023-03-26T03:03:08;4.10;;;3.13;;
32824;SDS011;51060;42.640;24.356;2023-03-26T03:05:34;3.10;;;2.80;;
32824;SDS011;51060;42.640;24.356;2023-03-26T03:08:02;2.73;;;2.30;;
32824;SDS011;51060;42.640;24.356;2023-03-26T03:10:30;3.37;;;2.67;;
32824;SDS011;51060;42.640;24.356;2023-03-26T03:12:56;3.90;;;3.03;;
32824;SDS011;51060;42.640;24.356;2023-03-26T03:15:23;3.33;;;2.73;;
32824;SDS011;51060;42.640;24.356;2023-03-26T03:17:48;3.27;;;2.93;;
32824;SDS011;51060;42.640;24.356;2023-03-26T03:20:14;2.93;;;2.53;;
32824;SDS011;51060;42.640;24.356;2023-03-26T03:22:41;3.60;;;2.90;;
32824;SDS011;51060;42.640;24.356;2023-03-26T03:25:07;2.87;;;2.57;;
32824;SDS011;51060;42.640;24.356;2023-03-26T03:27:42;2.93;;;2.30;;
32824;SDS011;51060;42.640;24.356;2023-03-26T03:30:08;2.50;;;2.30;;
32824;SDS011;51060;42.640;24.356;2023-03-26T03:32:36;1.90;;;1.80;;
32824;SDS011;51060;42.640;24.356;2023-03-26T03:35:02;2.43;;;2.00;;
32824;SDS011;51060;42.640;24.356;2023-03-26T03:37:30;3.67;;;2.90;;
32824;SDS011;51060;42.640;24.356;2023-03-26T03:39:56;2.33;;;1.90;;
32824;SDS011;51060;42.640;24.356;2023-03-26T03:42:21;2.60;;;2.13;;
32824;SDS011;51060;42.640;24.356;2023-03-26T03:44:47;2.73;;;2.30;;
32824;SDS011;51060;42.640;24.356;2023-03-26T03:47:13;4.40;;;3.03;;
32824;SDS011;51060;42.640;24.356;2023-03-26T03:49:39;2.50;;;2.30;;
32824;SDS011;51060;42.640;24.356;2023-03-26T03:52:05;3.43;;;2.70;;
32824;SDS011;51060;42.640;24.356;2023-03-26T03:54:31;2.53;;;2.23;;
32824;SDS011;51060;42.640;24.356;2023-03-26T03:56:57;2.53;;;2.20;;
32824;SDS011;51060;42.640;24.356;2023-03-26T03:59:22;3.60;;;2.97;;
32824;SDS011;51060;42.640;24.356;2023-03-26T04:01:48;2.30;;;2.10;;
32824;SDS011;51060;42.640;24.356;2023-03-26T04:04:15;2.40;;;2.20;;
32824;SDS011;51060;42.640;24.356;2023-03-26T04:06:41;3.07;;;2.77;;
32824;SDS011;51060;42.640;24.356;2023-03-26T04:09:09;2.03;;;1.83;;
32824;SDS011;51060;42.640;24.356;2023-03-26T04:11:35;3.33;;;2.77;;
32824;SDS011;51060;42.640;24.356;2023-03-26T04:14:01;1.70;;;1.60;;
32824;SDS011;51060;42.640;24.356;2023-03-26T04:16:26;1.63;;;1.50;;
32824;SDS011;51060;42.640;24.356;2023-03-26T04:18:52;1.83;;;1.70;;
32824;SDS011;51060;42.640;24.356;2023-03-26T04:21:18;2.00;;;1.40;;
32824;SDS011;51060;42.640;24.356;2023-03-26T04:23:44;1.93;;;1.50;;
32824;SDS011;51060;42.640;24.356;2023-03-26T04:26:14;1.80;;;1.50;;
32824;SDS011;51060;42.640;24.356;2023-03-26T04:31:25;2.37;;;1.87;;
32824;SDS011;51060;42.640;24.356;2023-03-26T04:34:05;1.53;;;1.43;;
32824;SDS011;51060;42.640;24.356;2023-03-26T04:36:40;1.60;;;1.50;;
32824;SDS011;51060;42.640;24.356;2023-03-26T04:39:07;3.40;;;2.33;;
32824;SDS011;51060;42.640;24.356;2023-03-26T04:41:34;3.00;;;2.27;;
32824;SDS011;51060;42.640;24.356;2023-03-26T04:44:00;1.40;;;1.30;;
32824;SDS011;51060;42.640;24.356;2023-03-26T04:46:26;2.07;;;1.70;;
32824;SDS011;51060;42.640;24.356;2023-03-26T04:48:52;2.83;;;2.10;;
32824;SDS011;51060;42.640;24.356;2023-03-26T04:51:23;3.13;;;2.30;;
32824;SDS011;51060;42.640;24.356;2023-03-26T04:53:54;5.20;;;2.10;;
32824;SDS011;51060;42.640;24.356;2023-03-26T04:59:13;2.00;;;1.80;;
32824;SDS011;51060;42.640;24.356;2023-03-26T05:01:42;4.67;;;2.90;;
32824;SDS011;51060;42.640;24.356;2023-03-26T05:04:15;2.60;;;2.37;;
32824;SDS011;51060;42.640;24.356;2023-03-26T05:06:40;3.07;;;2.30;;
32824;SDS011;51060;42.640;24.356;2023-03-26T05:09:06;2.93;;;2.67;;
32824;SDS011;51060;42.640;24.356;2023-03-26T05:11:34;3.70;;;3.10;;
32824;SDS011;51060;42.640;24.356;2023-03-26T05:14:00;3.57;;;2.27;;
32824;SDS011;51060;42.640;24.356;2023-03-26T05:16:26;5.23;;;2.40;;
32824;SDS011;51060;42.640;24.356;2023-03-26T05:18:55;3.93;;;2.83;;
32824;SDS011;51060;42.640;24.356;2023-03-26T05:21:21;3.53;;;2.87;;
32824;SDS011;51060;42.640;24.356;2023-03-26T05:23:48;3.53;;;2.70;;
32824;SDS011;51060;42.640;24.356;2023-03-26T05:26:15;4.20;;;3.20;;
32824;SDS011;51060;42.640;24.356;2023-03-26T05:28:41;3.30;;;2.57;;
32824;SDS011;51060;42.640;24.356;2023-03-26T05:31:07;5.67;;;2.77;;
32824;SDS011;51060;42.640;24.356;2023-03-26T05:33:33;3.73;;;2.63;;
32824;SDS011;51060;42.640;24.356;2023-03-26T05:35:59;3.90;;;2.53;;
32824;SDS011;51060;42.640;24.356;2023-03-26T05:38:27;2.43;;;1.90;;
32824;SDS011;51060;42.640;24.356;2023-03-26T05:40:57;3.50;;;1.90;;
32824;SDS011;51060;42.640;24.356;2023-03-26T05:43:23;5.33;;;3.30;;
32824;SDS011;51060;42.640;24.356;2023-03-26T05:45:49;2.73;;;2.30;;
32824;SDS011;51060;42.640;24.356;2023-03-26T05:48:15;3.63;;;1.97;;
32824;SDS011;51060;42.640;24.356;2023-03-26T05:50:40;2.87;;;2.00;;
32824;SDS011;51060;42.640;24.356;2023-03-26T05:53:06;2.73;;;1.80;;
32824;SDS011;51060;42.640;24.356;2023-03-26T05:55:31;2.80;;;2.03;;
32824;SDS011;51060;42.640;24.356;2023-03-26T05:57:57;2.90;;;2.23;;
32824;SDS011;51060;42.640;24.356;2023-03-26T06:00:23;2.43;;;2.10;;
32824;SDS011;51060;42.640;24.356;2023-03-26T06:02:49;1.97;;;1.70;;
32824;SDS011;51060;42.640;24.356;2023-03-26T06:05:16;3.30;;;2.07;;
32824;SDS011;51060;42.640;24.356;2023-03-26T06:07:42;1.67;;;1.57;;
32824;SDS011;51060;42.640;24.356;2023-03-26T06:10:07;2.20;;;1.90;;
32824;SDS011;51060;42.640;24.356;2023-03-26T06:12:33;3.30;;;2.20;;
32824;SDS011;51060;42.640;24.356;2023-03-26T06:14:59;2.10;;;1.60;;
32824;SDS011;51060;42.640;24.356;2023-03-26T06:17:24;2.07;;;1.87;;
32824;SDS011;51060;42.640;24.356;2023-03-26T06:19:50;3.07;;;1.70;;
32824;SDS011;51060;42.640;24.356;2023-03-26T06:22:15;2.40;;;2.20;;
32824;SDS011;51060;42.640;24.356;2023-03-26T06:24:41;2.63;;;2.17;;
32824;SDS011;51060;42.640;24.356;2023-03-26T06:27:06;4.40;;;2.73;;
32824;SDS011;51060;42.640;24.356;2023-03-26T06:29:32;2.43;;;2.20;;
32824;SDS011;51060;42.640;24.356;2023-03-26T06:31:58;3.40;;;1.97;;
32824;SDS011;51060;42.640;24.356;2023-03-26T06:34:23;1.80;;;1.70;;
32824;SDS011;51060;42.640;24.356;2023-03-26T06:36:49;2.03;;;1.80;;
32824;SDS011;51060;42.640;24.356;2023-03-26T06:39:17;4.23;;;1.60;;
32824;SDS011;51060;42.640;24.356;2023-03-26T06:41:43;3.13;;;2.00;;
32824;SDS011;51060;42.640;24.356;2023-03-26T06:44:09;2.27;;;1.70;;
32824;SDS011;51060;42.640;24.356;2023-03-26T06:46:35;4.57;;;2.37;;
32824;SDS011;51060;42.640;24.356;2023-03-26T06:49:01;3.53;;;2.77;;
32824;SDS011;51060;42.640;24.356;2023-03-26T06:51:27;5.33;;;2.70;;
32824;SDS011;51060;42.640;24.356;2023-03-26T06:53:52;1.93;;;1.60;;
32824;SDS011;51060;42.640;24.356;2023-03-26T06:56:18;2.03;;;1.13;;
32824;SDS011;51060;42.640;24.356;2023-03-26T06:58:43;2.43;;;1.33;;
32824;SDS011;51060;42.640;24.356;2023-03-26T07:01:09;3.10;;;1.53;;
32824;SDS011;51060;42.640;24.356;2023-03-26T07:03:35;2.33;;;1.40;;
32824;SDS011;51060;42.640;24.356;2023-03-26T07:06:00;1.63;;;1.50;;
32824;SDS011;51060;42.640;24.356;2023-03-26T07:08:26;1.80;;;1.50;;
32824;SDS011;51060;42.640;24.356;2023-03-26T07:10:52;1.27;;;1.17;;
32824;SDS011;51060;42.640;24.356;2023-03-26T07:13:17;2.63;;;2.27;;
32824;SDS011;51060;42.640;24.356;2023-03-26T07:15:43;3.00;;;1.20;;
32824;SDS011;51060;42.640;24.356;2023-03-26T07:18:08;2.63;;;1.40;;
32824;SDS011;51060;42.640;24.356;2023-03-26T07:20:34;1.20;;;1.10;;
32824;SDS011;51060;42.640;24.356;2023-03-26T07:23:00;1.80;;;1.13;;
32824;SDS011;51060;42.640;24.356;2023-03-26T07:25:26;1.90;;;1.60;;
32824;SDS011;51060;42.640;24.356;2023-03-26T07:33:28;9.77;;;5.73;;
32824;SDS011;51060;42.640;24.356;2023-03-26T07:38:42;1.20;;;1.07;;
32824;SDS011;51060;42.640;24.356;2023-03-26T07:46:16;1.70;;;1.27;;
32824;SDS011;51060;42.640;24.356;2023-03-26T07:48:42;1.87;;;1.33;;
32824;SDS011;51060;42.640;24.356;2023-03-26T07:51:12;1.10;;;0.73;;
32824;SDS011;51060;42.640;24.356;2023-03-26T07:53:38;3.47;;;1.70;;
32824;SDS011;51060;42.640;24.356;2023-03-26T07:58:38;5.30;;;2.90;;
32824;SDS011;51060;42.640;24.356;2023-03-26T08:01:38;7.50;;;4.50;;
32824;SDS011;51060;42.640;24.356;2023-03-26T08:04:19;11.50;;;7.77;;
32824;SDS011;51060;42.640;24.356;2023-03-26T08:07:07;20.87;;;13.27;;
32824;SDS011;51060;42.640;24.356;2023-03-26T08:15:12;2.33;;;1.60;;
32824;SDS011;51060;42.640;24.356;2023-03-26T08:17:48;2.67;;;1.27;;
32824;SDS011;51060;42.640;24.356;2023-03-26T08:20:31;45.47;;;4.77;;
32824;SDS011;51060;42.640;24.356;2023-03-26T08:28:45;4.33;;;1.43;;
32824;SDS011;51060;42.640;24.356;2023-03-26T08:31:38;17.57;;;4.80;;
32824;SDS011;51060;42.640;24.356;2023-03-26T08:34:04;2.60;;;1.50;;
32824;SDS011;51060;42.640;24.356;2023-03-26T08:36:30;2.60;;;1.20;;
32824;SDS011;51060;42.640;24.356;2023-03-26T08:38:56;4.50;;;3.40;;
32824;SDS011;51060;42.640;24.356;2023-03-26T09:00:31;1.00;;;0.77;;
32824;SDS011;51060;42.640;24.356;2023-03-26T09:14:51;0.67;;;0.63;;
32824;SDS011;51060;42.640;24.356;2023-03-26T09:26:13;1.73;;;1.20;;
32824;SDS011;51060;42.640;24.356;2023-03-26T09:34:30;1.40;;;1.20;;
32824;SDS011;51060;42.640;24.356;2023-03-26T09:37:16;1.45;;;1.10;;
32824;SDS011;51060;42.640;24.356;2023-03-26T09:52:06;6.57;;;1.52;;
32824;SDS011;51060;42.640;24.356;2023-03-26T09:54:40;1.05;;;0.95;;
32824;SDS011;51060;42.640;24.356;2023-03-26T10:00:14;2.08;;;1.40;;
32824;SDS011;51060;42.640;24.356;2023-03-26T10:19:42;0.73;;;0.70;;
32824;SDS011;51060;42.640;24.356;2023-03-26T10:22:19;1.08;;;0.55;;
32824;SDS011;51060;42.640;24.356;2023-03-26T10:25:12;0.95;;;0.80;;
32824;SDS011;51060;42.640;24.356;2023-03-26T10:31:01;2.10;;;1.30;;
32824;SDS011;51060;42.640;24.356;2023-03-26T10:33:41;2.88;;;1.83;;
32824;SDS011;51060;42.640;24.356;2023-03-26T10:36:36;3.22;;;2.40;;
32824;SDS011;51060;42.640;24.356;2023-03-26T10:44:36;2.47;;;1.52;;
32824;SDS011;51060;42.640;24.356;2023-03-26T10:56:22;1.00;;;0.90;;
32824;SDS011;51060;42.640;24.356;2023-03-26T10:58:49;2.50;;;0.70;;
32824;SDS011;51060;42.640;24.356;2023-03-26T11:01:19;1.50;;;1.00;;
32824;SDS011;51060;42.640;24.356;2023-03-26T11:04:00;2.30;;;1.13;;
32824;SDS011;51060;42.640;24.356;2023-03-26T11:28:15;3.88;;;2.13;;
32824;SDS011;51060;42.640;24.356;2023-03-26T11:30:57;3.70;;;1.88;;
32824;SDS011;51060;42.640;24.356;2023-03-26T11:33:47;6.30;;;3.05;;
32824;SDS011;51060;42.640;24.356;2023-03-26T11:36:16;3.67;;;2.55;;
32824;SDS011;51060;42.640;24.356;2023-03-26T11:38:46;0.75;;;0.60;;
32824;SDS011;51060;42.640;24.356;2023-03-26T11:41:20;1.60;;;1.30;;
32824;SDS011;51060;42.640;24.356;2023-03-26T11:44:32;2.55;;;1.80;;
32824;SDS011;51060;42.640;24.356;2023-03-26T11:46:44;1.02;;;0.93;;
32824;SDS011;51060;42.640;24.356;2023-03-26T11:49:11;2.17;;;1.17;;
32824;SDS011;51060;42.640;24.356;2023-03-26T11:51:38;1.30;;;0.90;;
32824;SDS011;51060;42.640;24.356;2023-03-26T11:54:05;2.42;;;1.90;;
32824;SDS011;51060;42.640;24.356;2023-03-26T11:56:32;2.42;;;1.50;;
32824;SDS011;51060;42.640;24.356;2023-03-26T11:59:10;2.08;;;1.60;;
32824;SDS011;51060;42.640;24.356;2023-03-26T12:01:49;11.13;;;6.38;;
32824;SDS011;51060;42.640;24.356;2023-03-26T12:04:16;36.72;;;20.42;;
32824;SDS011;51060;42.640;24.356;2023-03-26T12:06:53;5.10;;;3.22;;
32824;SDS011;51060;42.640;24.356;2023-03-26T12:09:24;1.48;;;0.60;;
32824;SDS011;51060;42.640;24.356;2023-03-26T12:11:51;19.65;;;12.52;;
32824;SDS011;51060;42.640;24.356;2023-03-26T12:14:22;3.90;;;2.65;;
32824;SDS011;51060;42.640;24.356;2023-03-26T12:17:24;2.60;;;1.92;;
32824;SDS011;51060;42.640;24.356;2023-03-26T12:19:54;3.45;;;2.70;;
32824;SDS011;51060;42.640;24.356;2023-03-26T12:28:02;4.68;;;3.95;;
32824;SDS011;51060;42.640;24.356;2023-03-26T12:33:23;3.33;;;3.03;;
32824;SDS011;51060;42.640;24.356;2023-03-26T12:35:51;1.08;;;0.98;;
32824;SDS011;51060;42.640;24.356;2023-03-26T12:41:03;1.48;;;1.20;;
32824;SDS011;51060;42.640;24.356;2023-03-26T12:43:41;2.53;;;1.80;;
32824;SDS011;51060;42.640;24.356;2023-03-26T12:46:27;3.20;;;1.42;;
32824;SDS011;51060;42.640;24.356;2023-03-26T12:48:57;1.10;;;1.00;;
32824;SDS011;51060;42.640;24.356;2023-03-26T12:57:49;2.25;;;1.42;;
32824;SDS011;51060;42.640;24.356;2023-03-26T13:05:27;3.03;;;1.75;;
32824;SDS011;51060;42.640;24.356;2023-03-26T13:10:55;1.42;;;1.00;;
32824;SDS011;51060;42.640;24.356;2023-03-26T13:18:58;1.45;;;1.10;;
32824;SDS011;51060;42.640;24.356;2023-03-26T13:27:02;1.20;;;0.95;;
32824;SDS011;51060;42.640;24.356;2023-03-26T13:32:32;1.38;;;1.00;;
32824;SDS011;51060;42.640;24.356;2023-03-26T13:48:59;1.42;;;1.30;;
32824;SDS011;51060;42.640;24.356;2023-03-26T13:54:38;2.38;;;2.08;;
32824;SDS011;51060;42.640;24.356;2023-03-26T13:57:13;1.23;;;1.10;;
32824;SDS011;51060;42.640;24.356;2023-03-26T14:00:14;1.05;;;0.73;;
32824;SDS011;51060;42.640;24.356;2023-03-26T14:05:51;2.30;;;1.02;;
32824;SDS011;51060;42.640;24.356;2023-03-26T14:08:22;2.55;;;0.80;;
32824;SDS011;51060;42.640;24.356;2023-03-26T14:10:56;0.57;;;0.57;;
32824;SDS011;51060;42.640;24.356;2023-03-26T14:16:25;1.67;;;0.77;;
32824;SDS011;51060;42.640;24.356;2023-03-26T14:22:03;11.63;;;6.82;;
32824;SDS011;51060;42.640;24.356;2023-03-26T14:27:23;0.95;;;0.80;;
32824;SDS011;51060;42.640;24.356;2023-03-26T14:32:42;5.28;;;2.72;;
32824;SDS011;51060;42.640;24.356;2023-03-26T14:51:57;4.70;;;4.22;;
32824;SDS011;51060;42.640;24.356;2023-03-26T14:54:27;2.92;;;2.10;;
32824;SDS011;51060;42.640;24.356;2023-03-26T15:05:53;2.05;;;1.88;;
32824;SDS011;51060;42.640;24.356;2023-03-26T15:14:33;1.38;;;1.27;;
32824;SDS011;51060;42.640;24.356;2023-03-26T15:42:51;5.63;;;4.03;;
32824;SDS011;51060;42.640;24.356;2023-03-26T15:55:54;2.10;;;1.90;;
32824;SDS011;51060;42.640;24.356;2023-03-26T16:07:00;6.50;;;4.65;;
32824;SDS011;51060;42.640;24.356;2023-03-26T16:14:42;2.83;;;2.55;;
32824;SDS011;51060;42.640;24.356;2023-03-26T16:17:16;2.10;;;1.45;;
32824;SDS011;51060;42.640;24.356;2023-03-26T16:19:45;2.03;;;1.73;;
32824;SDS011;51060;42.640;24.356;2023-03-26T16:22:52;6.90;;;5.57;;
32824;SDS011;51060;42.640;24.356;2023-03-26T16:25:20;39.88;;;22.42;;
32824;SDS011;51060;42.640;24.356;2023-03-26T16:28:05;57.00;;;31.85;;
32824;SDS011;51060;42.640;24.356;2023-03-26T16:36:32;7.85;;;1.92;;
32824;SDS011;51060;42.640;24.356;2023-03-26T16:39:10;13.85;;;8.88;;
32824;SDS011;51060;42.640;24.356;2023-03-26T16:44:10;8.98;;;6.18;;
32824;SDS011;51060;42.640;24.356;2023-03-26T16:52:21;39.55;;;18.48;;
32824;SDS011;51060;42.640;24.356;2023-03-26T17:08:20;2.78;;;2.28;;
32824;SDS011;51060;42.640;24.356;2023-03-26T17:10:59;2.13;;;1.65;;
32824;SDS011;51060;42.640;24.356;2023-03-26T17:18:49;5.47;;;4.00;;
32824;SDS011;51060;42.640;24.356;2023-03-26T17:24:25;11.30;;;8.97;;
32824;SDS011;51060;42.640;24.356;2023-03-26T17:32:22;12.53;;;9.73;;
32824;SDS011;51060;42.640;24.356;2023-03-26T17:34:53;11.80;;;8.60;;
32824;SDS011;51060;42.640;24.356;2023-03-26T17:42:36;16.67;;;12.40;;
32824;SDS011;51060;42.640;24.356;2023-03-26T17:45:32;31.70;;;22.63;;
32824;SDS011;51060;42.640;24.356;2023-03-26T17:47:52;116.63;;;68.40;;
32824;SDS011;51060;42.640;24.356;2023-03-26T17:50:26;21.27;;;13.53;;
32824;SDS011;51060;42.640;24.356;2023-03-26T17:55:35;9.80;;;7.80;;
32824;SDS011;51060;42.640;24.356;2023-03-26T17:58:03;7.47;;;4.03;;
32824;SDS011;51060;42.640;24.356;2023-03-26T18:00:42;8.30;;;6.93;;
32824;SDS011;51060;42.640;24.356;2023-03-26T18:03:14;12.60;;;8.33;;
32824;SDS011;51060;42.640;24.356;2023-03-26T18:05:44;160.97;;;81.43;;
32824;SDS011;51060;42.640;24.356;2023-03-26T18:09:11;51.83;;;30.40;;
32824;SDS011;51060;42.640;24.356;2023-03-26T18:16:56;22.60;;;20.10;;
32824;SDS011;51060;42.640;24.356;2023-03-26T18:19:24;15.73;;;12.20;;
32824;SDS011;51060;42.640;24.356;2023-03-26T18:24:18;15.30;;;11.83;;
32824;SDS011;51060;42.640;24.356;2023-03-26T18:26:51;23.77;;;17.10;;
32824;SDS011;51060;42.640;24.356;2023-03-26T18:29:24;27.30;;;19.73;;
32824;SDS011;51060;42.640;24.356;2023-03-26T18:31:53;45.87;;;34.60;;
32824;SDS011;51060;42.640;24.356;2023-03-26T18:34:19;29.80;;;21.40;;
32824;SDS011;51060;42.640;24.356;2023-03-26T18:36:46;57.03;;;38.67;;
32824;SDS011;51060;42.640;24.356;2023-03-26T18:39:43;28.73;;;20.07;;
32824;SDS011;51060;42.640;24.356;2023-03-26T18:42:21;16.67;;;12.00;;
32824;SDS011;51060;42.640;24.356;2023-03-26T18:44:47;21.30;;;16.17;;
32824;SDS011;51060;42.640;24.356;2023-03-26T18:47:15;20.77;;;16.00;;
32824;SDS011;51060;42.640;24.356;2023-03-26T18:49:42;18.80;;;13.17;;
32824;SDS011;51060;42.640;24.356;2023-03-26T18:52:12;15.03;;;11.73;;
32824;SDS011;51060;42.640;24.356;2023-03-26T18:54:38;15.00;;;11.63;;
32824;SDS011;51060;42.640;24.356;2023-03-26T18:57:08;17.87;;;13.83;;
32824;SDS011;51060;42.640;24.356;2023-03-26T18:59:35;13.10;;;10.90;;
32824;SDS011;51060;42.640;24.356;2023-03-26T19:02:08;23.53;;;18.20;;
32824;SDS011;51060;42.640;24.356;2023-03-26T19:04:37;37.90;;;27.57;;
32824;SDS011;51060;42.640;24.356;2023-03-26T19:07:08;31.37;;;22.47;;
32824;SDS011;51060;42.640;24.356;2023-03-26T19:09:39;50.10;;;35.93;;
32824;SDS011;51060;42.640;24.356;2023-03-26T19:12:06;40.57;;;28.73;;
32824;SDS011;51060;42.640;24.356;2023-03-26T19:14:38;26.27;;;17.90;;
32824;SDS011;51060;42.640;24.356;2023-03-26T19:17:15;18.70;;;14.63;;
32824;SDS011;51060;42.640;24.356;2023-03-26T19:19:40;21.17;;;14.00;;
32824;SDS011;51060;42.640;24.356;2023-03-26T19:22:07;20.00;;;14.30;;
32824;SDS011;51060;42.640;24.356;2023-03-26T19:24:35;19.50;;;13.20;;
32824;SDS011;51060;42.640;24.356;2023-03-26T19:27:01;14.23;;;10.43;;
32824;SDS011;51060;42.640;24.356;2023-03-26T19:29:27;13.50;;;9.50;;
32824;SDS011;51060;42.640;24.356;2023-03-26T19:32:29;20.03;;;12.67;;
32824;SDS011;51060;42.640;24.356;2023-03-26T19:34:58;26.07;;;16.73;;
32824;SDS011;51060;42.640;24.356;2023-03-26T19:37:26;73.80;;;45.70;;
32824;SDS011;51060;42.640;24.356;2023-03-26T19:42:36;53.37;;;35.40;;
32824;SDS011;51060;42.640;24.356;2023-03-26T19:45:03;51.90;;;35.47;;
32824;SDS011;51060;42.640;24.356;2023-03-26T19:47:42;38.80;;;29.50;;
32824;SDS011;51060;42.640;24.356;2023-03-26T19:50:25;27.43;;;22.07;;
32824;SDS011;51060;42.640;24.356;2023-03-26T19:58:46;31.27;;;22.17;;
32824;SDS011;51060;42.640;24.356;2023-03-26T20:01:17;72.53;;;43.97;;
32824;SDS011;51060;42.640;24.356;2023-03-26T20:03:45;70.93;;;39.57;;
32824;SDS011;51060;42.640;24.356;2023-03-26T20:06:16;77.50;;;41.47;;
32824;SDS011;51060;42.640;24.356;2023-03-26T20:08:44;28.00;;;17.90;;
32824;SDS011;51060;42.640;24.356;2023-03-26T20:11:12;95.20;;;49.60;;
32824;SDS011;51060;42.640;24.356;2023-03-26T20:13:39;65.13;;;38.20;;
32824;SDS011;51060;42.640;24.356;2023-03-26T20:16:13;38.87;;;27.03;;
32824;SDS011;51060;42.640;24.356;2023-03-26T20:18:43;37.97;;;25.33;;
32824;SDS011;51060;42.640;24.356;2023-03-26T20:21:09;52.23;;;34.97;;
32824;SDS011;51060;42.640;24.356;2023-03-26T20:23:36;59.73;;;37.27;;
32824;SDS011;51060;42.640;24.356;2023-03-26T20:26:03;54.50;;;35.63;;
32824;SDS011;51060;42.640;24.356;2023-03-26T20:28:29;49.73;;;33.63;;
32824;SDS011;51060;42.640;24.356;2023-03-26T20:30:54;47.63;;;33.43;;
32824;SDS011;51060;42.640;24.356;2023-03-26T20:33:22;47.77;;;29.80;;
32824;SDS011;51060;42.640;24.356;2023-03-26T20:35:55;58.53;;;41.60;;
32824;SDS011;51060;42.640;24.356;2023-03-26T20:38:22;41.97;;;27.50;;
32824;SDS011;51060;42.640;24.356;2023-03-26T20:40:49;36.10;;;25.27;;
32824;SDS011;51060;42.640;24.356;2023-03-26T20:43:16;29.70;;;19.43;;
32824;SDS011;51060;42.640;24.356;2023-03-26T20:45:43;19.10;;;13.20;;
32824;SDS011;51060;42.640;24.356;2023-03-26T20:48:12;16.53;;;10.97;;
32824;SDS011;51060;42.640;24.356;2023-03-26T20:50:39;18.97;;;12.43;;
32824;SDS011;51060;42.640;24.356;2023-03-26T20:53:13;16.53;;;12.10;;
32824;SDS011;51060;42.640;24.356;2023-03-26T20:55:40;20.87;;;14.47;;
32824;SDS011;51060;42.640;24.356;2023-03-26T20:58:17;18.53;;;12.90;;
32824;SDS011;51060;42.640;24.356;2023-03-26T21:00:46;19.47;;;14.60;;
32824;SDS011;51060;42.640;24.356;2023-03-26T21:03:13;20.50;;;14.60;;
32824;SDS011;51060;42.640;24.356;2023-03-26T21:05:40;25.00;;;16.07;;
32824;SDS011;51060;42.640;24.356;2023-03-26T21:08:12;26.57;;;18.00;;
32824;SDS011;51060;42.640;24.356;2023-03-26T21:10:42;27.97;;;17.80;;
32824;SDS011;51060;42.640;24.356;2023-03-26T21:13:15;25.47;;;17.07;;